sensor_id;sensor_type;location;lat;lon;timestamp;P1;durP1;ratioP1;P2;durP2;ratioP2
51913;SDS011;37940;53.002;6.930;2023-03-24T00:01:04;53.53;;;49.90;;
51913;SDS011;37940;53.002;6.930;2023-03-24T00:03:31;56.30;;;52.38;;
51913;SDS011;37940;53.002;6.930;2023-03-24T00:05:58;58.05;;;53.90;;
51913;SDS011;37940;53.002;6.930;2023-03-24T00:08:26;61.55;;;57.10;;
51913;SDS011;37940;53.002;6.930;2023-03-24T00:10:58;60.60;;;56.20;;
51913;SDS011;37940;53.002;6.930;2023-03-24T00:13:26;59.95;;;55.63;;
51913;SDS011;37940;53.002;6.930;2023-03-24T00:15:52;62.13;;;57.60;;
51913;SDS011;37940;53.002;6.930;2023-03-24T00:18:18;68.53;;;63.38;;
51913;SDS011;37940;53.002;6.930;2023-03-24T00:20:47;67.30;;;62.28;;
51913;SDS011;37940;53.002;6.930;2023-03-24T00:30:31;57.30;;;53.22;;
51913;SDS011;37940;53.002;6.930;2023-03-24T00:32:59;95.15;;;86.38;;
51913;SDS011;37940;53.002;6.930;2023-03-24T00:35:26;97.90;;;88.55;;
51913;SDS011;37940;53.002;6.930;2023-03-24T00:37:52;101.97;;;92.05;;
51913;SDS011;37940;53.002;6.930;2023-03-24T00:40:19;100.88;;;91.03;;
51913;SDS011;37940;53.002;6.930;2023-03-24T00:42:46;102.18;;;92.15;;
51913;SDS011;37940;53.002;6.930;2023-03-24T00:45:14;101.50;;;91.55;;
51913;SDS011;37940;53.002;6.930;2023-03-24T00:47:43;101.03;;;91.13;;
51913;SDS011;37940;53.002;6.930;2023-03-24T00:50:14;101.53;;;91.50;;
51913;SDS011;37940;53.002;6.930;2023-03-24T00:52:41;104.30;;;93.75;;
51913;SDS011;37940;53.002;6.930;2023-03-24T00:55:12;103.32;;;92.88;;
51913;SDS011;37940;53.002;6.930;2023-03-24T00:57:40;104.40;;;93.78;;
51913;SDS011;37940;53.002;6.930;2023-03-24T01:00:14;125.97;;;109.60;;
51913;SDS011;37940;53.002;6.930;2023-03-24T01:02:43;125.80;;;109.35;;
51913;SDS011;37940;53.002;6.930;2023-03-24T01:05:10;126.68;;;109.90;;
51913;SDS011;37940;53.002;6.930;2023-03-24T01:07:38;126.85;;;109.78;;
51913;SDS011;37940;53.002;6.930;2023-03-24T01:10:06;126.20;;;109.75;;
51913;SDS011;37940;53.002;6.930;2023-03-24T01:12:34;127.43;;;110.55;;
51913;SDS011;37940;53.002;6.930;2023-03-24T01:15:02;126.80;;;110.10;;
51913;SDS011;37940;53.002;6.930;2023-03-24T01:17:31;127.25;;;110.38;;
51913;SDS011;37940;53.002;6.930;2023-03-24T01:19:58;127.22;;;110.10;;
51913;SDS011;37940;53.002;6.930;2023-03-24T01:22:28;126.43;;;109.53;;
51913;SDS011;37940;53.002;6.930;2023-03-24T01:24:55;128.07;;;110.60;;
51913;SDS011;37940;53.002;6.930;2023-03-24T01:27:21;127.18;;;110.05;;
51913;SDS011;37940;53.002;6.930;2023-03-24T01:29:47;126.97;;;109.93;;
51913;SDS011;37940;53.002;6.930;2023-03-24T01:32:13;129.15;;;111.22;;
51913;SDS011;37940;53.002;6.930;2023-03-24T01:34:39;126.97;;;109.40;;
51913;SDS011;37940;53.002;6.930;2023-03-24T01:37:04;126.68;;;109.05;;
51913;SDS011;37940;53.002;6.930;2023-03-24T01:39:30;128.57;;;110.68;;
51913;SDS011;37940;53.002;6.930;2023-03-24T01:41:56;128.07;;;110.25;;
51913;SDS011;37940;53.002;6.930;2023-03-24T01:44:33;128.23;;;110.45;;
51913;SDS011;37940;53.002;6.930;2023-03-24T01:47:01;128.27;;;110.28;;
51913;SDS011;37940;53.002;6.930;2023-03-24T01:49:31;128.95;;;110.90;;
51913;SDS011;37940;53.002;6.930;2023-03-24T01:52:02;129.02;;;111.00;;
51913;SDS011;37940;53.002;6.930;2023-03-24T01:54:33;129.15;;;110.78;;
51913;SDS011;37940;53.002;6.930;2023-03-24T01:57:20;130.25;;;111.80;;
51913;SDS011;37940;53.002;6.930;2023-03-24T02:00:02;130.52;;;112.07;;
51913;SDS011;37940;53.002;6.930;2023-03-24T02:02:33;128.85;;;110.90;;
51913;SDS011;37940;53.002;6.930;2023-03-24T02:05:01;130.13;;;111.45;;
51913;SDS011;37940;53.002;6.930;2023-03-24T02:07:48;130.50;;;111.80;;
51913;SDS011;37940;53.002;6.930;2023-03-24T02:10:21;129.48;;;110.97;;
51913;SDS011;37940;53.002;6.930;2023-03-24T02:12:47;130.32;;;111.72;;
51913;SDS011;37940;53.002;6.930;2023-03-24T02:15:14;130.77;;;111.93;;
51913;SDS011;37940;53.002;6.930;2023-03-24T02:34:35;130.85;;;111.97;;
51913;SDS011;37940;53.002;6.930;2023-03-24T02:47:45;131.82;;;112.03;;
51913;SDS011;37940;53.002;6.930;2023-03-24T02:50:15;133.55;;;112.97;;
51913;SDS011;37940;53.002;6.930;2023-03-24T02:52:59;133.48;;;113.18;;
51913;SDS011;37940;53.002;6.930;2023-03-24T02:55:30;108.93;;;97.38;;
51913;SDS011;37940;53.002;6.930;2023-03-24T02:58:07;109.10;;;97.53;;
51913;SDS011;37940;53.002;6.930;2023-03-24T03:00:49;109.93;;;98.25;;
51913;SDS011;37940;53.002;6.930;2023-03-24T03:03:27;107.78;;;96.35;;
51913;SDS011;37940;53.002;6.930;2023-03-24T03:06:02;109.75;;;98.05;;
51913;SDS011;37940;53.002;6.930;2023-03-24T03:08:51;112.07;;;100.03;;
51913;SDS011;37940;53.002;6.930;2023-03-24T03:11:21;109.78;;;98.05;;
51913;SDS011;37940;53.002;6.930;2023-03-24T03:13:49;109.93;;;98.20;;
51913;SDS011;37940;53.002;6.930;2023-03-24T03:19:13;110.35;;;98.60;;
51913;SDS011;37940;53.002;6.930;2023-03-24T03:21:43;111.10;;;99.25;;
51913;SDS011;37940;53.002;6.930;2023-03-24T03:24:17;108.47;;;96.95;;
51913;SDS011;37940;53.002;6.930;2023-03-24T03:26:50;110.47;;;98.70;;
51913;SDS011;37940;53.002;6.930;2023-03-24T03:29:23;113.80;;;101.50;;
51913;SDS011;37940;53.002;6.930;2023-03-24T03:31:57;108.72;;;97.10;;
51913;SDS011;37940;53.002;6.930;2023-03-24T03:34:36;110.43;;;98.65;;
51913;SDS011;37940;53.002;6.930;2023-03-24T03:37:05;109.88;;;98.15;;
51913;SDS011;37940;53.002;6.930;2023-03-24T03:39:39;112.38;;;100.13;;
51913;SDS011;37940;53.002;6.930;2023-03-24T03:42:09;122.07;;;106.82;;
51913;SDS011;37940;53.002;6.930;2023-03-24T03:44:35;127.53;;;110.18;;
51913;SDS011;37940;53.002;6.930;2023-03-24T03:47:01;134.70;;;113.43;;
51913;SDS011;37940;53.002;6.930;2023-03-24T03:49:27;136.20;;;114.63;;
51913;SDS011;37940;53.002;6.930;2023-03-24T03:51:53;110.95;;;99.00;;
51913;SDS011;37940;53.002;6.930;2023-03-24T03:54:19;112.00;;;99.97;;
51913;SDS011;37940;53.002;6.930;2023-03-24T03:56:47;112.30;;;100.15;;
51913;SDS011;37940;53.002;6.930;2023-03-24T04:05:00;113.10;;;100.95;;
51913;SDS011;37940;53.002;6.930;2023-03-24T04:26:55;110.47;;;98.65;;
51913;SDS011;37940;53.002;6.930;2023-03-24T04:30:11;109.03;;;97.43;;
51913;SDS011;37940;53.002;6.930;2023-03-24T04:35:27;130.35;;;110.38;;
51913;SDS011;37940;53.002;6.930;2023-03-24T04:37:59;131.55;;;111.43;;
51913;SDS011;37940;53.002;6.930;2023-03-24T04:40:31;131.57;;;111.35;;
51913;SDS011;37940;53.002;6.930;2023-03-24T04:43:02;117.28;;;104.28;;
51913;SDS011;37940;53.002;6.930;2023-03-24T04:45:32;105.15;;;94.10;;
51913;SDS011;37940;53.002;6.930;2023-03-24T04:48:00;105.85;;;94.70;;
51913;SDS011;37940;53.002;6.930;2023-03-24T04:50:34;106.45;;;95.30;;
51913;SDS011;37940;53.002;6.930;2023-03-24T04:53:02;103.28;;;92.55;;
51913;SDS011;37940;53.002;6.930;2023-03-24T04:58:14;105.10;;;94.15;;
51913;SDS011;37940;53.002;6.930;2023-03-24T05:00:40;106.22;;;95.10;;
51913;SDS011;37940;53.002;6.930;2023-03-24T05:03:08;105.25;;;94.20;;
51913;SDS011;37940;53.002;6.930;2023-03-24T05:05:38;106.57;;;95.43;;
51913;SDS011;37940;53.002;6.930;2023-03-24T05:08:05;106.97;;;95.70;;
51913;SDS011;37940;53.002;6.930;2023-03-24T05:10:33;106.05;;;94.90;;
51913;SDS011;37940;53.002;6.930;2023-03-24T05:12:59;106.68;;;95.50;;
51913;SDS011;37940;53.002;6.930;2023-03-24T05:15:26;105.80;;;94.80;;
51913;SDS011;37940;53.002;6.930;2023-03-24T05:17:52;105.53;;;94.55;;
51913;SDS011;37940;53.002;6.930;2023-03-24T05:20:17;106.85;;;95.65;;
51913;SDS011;37940;53.002;6.930;2023-03-24T05:22:43;123.63;;;107.15;;
51913;SDS011;37940;53.002;6.930;2023-03-24T05:25:09;117.60;;;104.03;;
51913;SDS011;37940;53.002;6.930;2023-03-24T05:27:35;105.97;;;94.90;;
51913;SDS011;37940;53.002;6.930;2023-03-24T05:30:02;103.10;;;92.43;;
51913;SDS011;37940;53.002;6.930;2023-03-24T05:32:29;104.32;;;93.53;;
51913;SDS011;37940;53.002;6.930;2023-03-24T05:34:55;104.30;;;93.47;;
51913;SDS011;37940;53.002;6.930;2023-03-24T05:37:21;104.75;;;93.90;;
51913;SDS011;37940;53.002;6.930;2023-03-24T05:39:46;106.05;;;95.00;;
51913;SDS011;37940;53.002;6.930;2023-03-24T05:42:12;102.85;;;92.22;;
51913;SDS011;37940;53.002;6.930;2023-03-24T05:44:39;103.78;;;93.03;;
51913;SDS011;37940;53.002;6.930;2023-03-24T05:47:05;104.10;;;93.30;;
51913;SDS011;37940;53.002;6.930;2023-03-24T05:49:31;104.50;;;93.65;;
51913;SDS011;37940;53.002;6.930;2023-03-24T05:51:57;105.03;;;94.18;;
51913;SDS011;37940;53.002;6.930;2023-03-24T05:54:22;104.43;;;93.63;;
51913;SDS011;37940;53.002;6.930;2023-03-24T05:56:48;126.60;;;108.70;;
51913;SDS011;37940;53.002;6.930;2023-03-24T05:59:14;129.05;;;109.10;;
51913;SDS011;37940;53.002;6.930;2023-03-24T06:01:40;130.35;;;110.25;;
51913;SDS011;37940;53.002;6.930;2023-03-24T06:04:06;127.65;;;108.18;;
51913;SDS011;37940;53.002;6.930;2023-03-24T06:06:32;106.20;;;95.15;;
51913;SDS011;37940;53.002;6.930;2023-03-24T06:08:58;105.22;;;94.28;;
51913;SDS011;37940;53.002;6.930;2023-03-24T06:11:27;102.80;;;92.22;;
51913;SDS011;37940;53.002;6.930;2023-03-24T06:13:53;103.18;;;92.60;;
51913;SDS011;37940;53.002;6.930;2023-03-24T06:16:24;104.47;;;93.63;;
51913;SDS011;37940;53.002;6.930;2023-03-24T06:18:53;102.15;;;91.65;;
51913;SDS011;37940;53.002;6.930;2023-03-24T06:21:19;103.80;;;93.13;;
51913;SDS011;37940;53.002;6.930;2023-03-24T06:23:46;103.72;;;93.07;;
51913;SDS011;37940;53.002;6.930;2023-03-24T06:26:12;103.80;;;93.05;;
51913;SDS011;37940;53.002;6.930;2023-03-24T06:28:39;104.55;;;93.70;;
51913;SDS011;37940;53.002;6.930;2023-03-24T06:31:09;103.78;;;93.05;;
51913;SDS011;37940;53.002;6.930;2023-03-24T06:33:42;105.13;;;94.18;;
51913;SDS011;37940;53.002;6.930;2023-03-24T06:36:09;103.93;;;93.13;;
51913;SDS011;37940;53.002;6.930;2023-03-24T06:38:36;105.60;;;94.65;;
51913;SDS011;37940;53.002;6.930;2023-03-24T06:41:02;105.32;;;94.35;;
51913;SDS011;37940;53.002;6.930;2023-03-24T06:43:29;105.88;;;94.93;;
51913;SDS011;37940;53.002;6.930;2023-03-24T06:45:55;105.63;;;94.65;;
51913;SDS011;37940;53.002;6.930;2023-03-24T06:48:21;104.85;;;93.90;;
51913;SDS011;37940;53.002;6.930;2023-03-24T06:50:47;106.30;;;95.18;;
51913;SDS011;37940;53.002;6.930;2023-03-24T06:53:13;104.43;;;93.55;;
51913;SDS011;37940;53.002;6.930;2023-03-24T06:55:39;107.13;;;95.88;;
51913;SDS011;37940;53.002;6.930;2023-03-24T06:58:05;104.25;;;93.40;;
51913;SDS011;37940;53.002;6.930;2023-03-24T07:00:31;103.45;;;92.70;;
51913;SDS011;37940;53.002;6.930;2023-03-24T07:02:57;108.13;;;96.75;;
51913;SDS011;37940;53.002;6.930;2023-03-24T07:05:22;121.43;;;105.13;;
51913;SDS011;37940;53.002;6.930;2023-03-24T07:07:48;131.82;;;111.07;;
51913;SDS011;37940;53.002;6.930;2023-03-24T07:10:14;132.05;;;111.43;;
51913;SDS011;37940;53.002;6.930;2023-03-24T07:12:40;132.75;;;111.70;;
51913;SDS011;37940;53.002;6.930;2023-03-24T07:15:06;131.18;;;110.55;;
51913;SDS011;37940;53.002;6.930;2023-03-24T07:17:33;132.40;;;111.38;;
51913;SDS011;37940;53.002;6.930;2023-03-24T07:19:59;133.35;;;112.50;;
51913;SDS011;37940;53.002;6.930;2023-03-24T07:22:25;132.38;;;111.78;;
51913;SDS011;37940;53.002;6.930;2023-03-24T07:24:51;132.48;;;111.13;;
51913;SDS011;37940;53.002;6.930;2023-03-24T07:27:17;133.35;;;111.78;;
51913;SDS011;37940;53.002;6.930;2023-03-24T07:29:43;134.82;;;112.85;;
51913;SDS011;37940;53.002;6.930;2023-03-24T07:32:08;135.50;;;113.45;;
51913;SDS011;37940;53.002;6.930;2023-03-24T07:34:34;135.18;;;113.13;;
51913;SDS011;37940;53.002;6.930;2023-03-24T07:37:03;135.73;;;113.57;;
51913;SDS011;37940;53.002;6.930;2023-03-24T07:39:29;135.60;;;113.25;;
51913;SDS011;37940;53.002;6.930;2023-03-24T07:41:55;115.47;;;102.72;;
51913;SDS011;37940;53.002;6.930;2023-03-24T07:44:21;136.75;;;114.38;;
51913;SDS011;37940;53.002;6.930;2023-03-24T07:46:47;133.05;;;111.40;;
51913;SDS011;37940;53.002;6.930;2023-03-24T07:49:12;138.30;;;115.22;;
51913;SDS011;37940;53.002;6.930;2023-03-24T07:51:39;134.45;;;112.57;;
51913;SDS011;37940;53.002;6.930;2023-03-24T07:54:05;111.85;;;99.80;;
51913;SDS011;37940;53.002;6.930;2023-03-24T07:56:30;111.88;;;99.75;;
51913;SDS011;37940;53.002;6.930;2023-03-24T07:58:56;111.15;;;99.20;;
51913;SDS011;37940;53.002;6.930;2023-03-24T08:01:22;110.38;;;98.53;;
51913;SDS011;37940;53.002;6.930;2023-03-24T08:03:48;110.63;;;98.68;;
51913;SDS011;37940;53.002;6.930;2023-03-24T08:06:18;112.15;;;100.00;;
51913;SDS011;37940;53.002;6.930;2023-03-24T08:08:43;112.97;;;100.72;;
51913;SDS011;37940;53.002;6.930;2023-03-24T08:11:09;111.15;;;99.10;;
51913;SDS011;37940;53.002;6.930;2023-03-24T08:13:35;111.35;;;99.30;;
51913;SDS011;37940;53.002;6.930;2023-03-24T08:16:00;113.30;;;100.95;;
51913;SDS011;37940;53.002;6.930;2023-03-24T08:18:27;114.78;;;102.22;;
51913;SDS011;37940;53.002;6.930;2023-03-24T08:20:54;114.50;;;101.95;;
51913;SDS011;37940;53.002;6.930;2023-03-24T08:23:22;107.03;;;95.80;;
51913;SDS011;37940;53.002;6.930;2023-03-24T08:25:48;110.32;;;98.75;;
51913;SDS011;37940;53.002;6.930;2023-03-24T08:28:14;110.03;;;98.38;;
51913;SDS011;37940;53.002;6.930;2023-03-24T08:30:40;110.95;;;99.20;;
51913;SDS011;37940;53.002;6.930;2023-03-24T08:33:11;110.35;;;98.63;;
51913;SDS011;37940;53.002;6.930;2023-03-24T08:35:38;111.35;;;99.45;;
51913;SDS011;37940;53.002;6.930;2023-03-24T08:38:05;110.60;;;98.78;;
51913;SDS011;37940;53.002;6.930;2023-03-24T08:40:32;111.22;;;99.32;;
51913;SDS011;37940;53.002;6.930;2023-03-24T08:42:59;111.15;;;99.28;;
51913;SDS011;37940;53.002;6.930;2023-03-24T08:45:28;110.30;;;98.45;;
51913;SDS011;37940;53.002;6.930;2023-03-24T08:47:56;114.03;;;101.55;;
51913;SDS011;37940;53.002;6.930;2023-03-24T08:50:24;110.63;;;98.80;;
51913;SDS011;37940;53.002;6.930;2023-03-24T08:52:52;108.93;;;97.28;;
51913;SDS011;37940;53.002;6.930;2023-03-24T08:55:19;111.53;;;99.55;;
51913;SDS011;37940;53.002;6.930;2023-03-24T08:57:45;111.13;;;99.10;;
51913;SDS011;37940;53.002;6.930;2023-03-24T09:00:12;109.85;;;98.00;;
51913;SDS011;37940;53.002;6.930;2023-03-24T09:02:49;110.43;;;98.47;;
51913;SDS011;37940;53.002;6.930;2023-03-24T09:05:18;111.35;;;99.38;;
51913;SDS011;37940;53.002;6.930;2023-03-24T09:07:44;112.47;;;100.22;;
51913;SDS011;37940;53.002;6.930;2023-03-24T09:10:11;112.18;;;100.05;;
51913;SDS011;37940;53.002;6.930;2023-03-24T09:12:38;111.85;;;99.75;;
51913;SDS011;37940;53.002;6.930;2023-03-24T09:15:05;112.60;;;100.43;;
51913;SDS011;37940;53.002;6.930;2023-03-24T09:17:33;112.85;;;100.63;;
51913;SDS011;37940;53.002;6.930;2023-03-24T09:19:59;111.03;;;99.03;;
51913;SDS011;37940;53.002;6.930;2023-03-24T09:22:25;109.93;;;98.18;;
51913;SDS011;37940;53.002;6.930;2023-03-24T09:24:51;109.47;;;97.72;;
51913;SDS011;37940;53.002;6.930;2023-03-24T09:27:17;108.75;;;97.20;;
51913;SDS011;37940;53.002;6.930;2023-03-24T09:29:43;108.70;;;97.13;;
51913;SDS011;37940;53.002;6.930;2023-03-24T09:32:08;110.63;;;98.78;;
51913;SDS011;37940;53.002;6.930;2023-03-24T09:34:35;111.43;;;99.43;;
51913;SDS011;37940;53.002;6.930;2023-03-24T09:37:03;110.43;;;98.53;;
51913;SDS011;37940;53.002;6.930;2023-03-24T09:39:29;111.22;;;99.28;;
51913;SDS011;37940;53.002;6.930;2023-03-24T09:41:56;112.82;;;100.60;;
51913;SDS011;37940;53.002;6.930;2023-03-24T09:44:42;112.05;;;99.93;;
51913;SDS011;37940;53.002;6.930;2023-03-24T09:50:01;114.03;;;101.57;;
51913;SDS011;37940;53.002;6.930;2023-03-24T09:52:34;120.93;;;106.97;;
51913;SDS011;37940;53.002;6.930;2023-03-24T09:55:09;115.50;;;102.78;;
51913;SDS011;37940;53.002;6.930;2023-03-24T09:57:42;78.55;;;72.30;;
51913;SDS011;37940;53.002;6.930;2023-03-24T10:00:18;93.90;;;85.53;;
51913;SDS011;37940;53.002;6.930;2023-03-24T10:02:45;99.20;;;90.13;;
51913;SDS011;37940;53.002;6.930;2023-03-24T10:16:29;38.85;;;36.42;;
51913;SDS011;37940;53.002;6.930;2023-03-24T10:21:40;26.05;;;24.45;;
51913;SDS011;37940;53.002;6.930;2023-03-24T10:29:36;87.97;;;80.55;;
51913;SDS011;37940;53.002;6.930;2023-03-24T10:34:36;103.65;;;93.93;;
51913;SDS011;37940;53.002;6.930;2023-03-24T10:37:03;48.47;;;45.30;;
51913;SDS011;37940;53.002;6.930;2023-03-24T11:22:40;46.80;;;43.78;;
51913;SDS011;37940;53.002;6.930;2023-03-24T12:41:20;57.13;;;53.33;;
51913;SDS011;37940;53.002;6.930;2023-03-24T13:07:08;67.45;;;62.65;;
51913;SDS011;37940;53.002;6.930;2023-03-24T17:04:06;49.38;;;46.17;;
51913;SDS011;37940;53.002;6.930;2023-03-24T17:06:42;36.85;;;34.50;;
51913;SDS011;37940;53.002;6.930;2023-03-24T17:09:11;26.77;;;25.02;;
51913;SDS011;37940;53.002;6.930;2023-03-24T17:14:04;31.20;;;29.30;;
51913;SDS011;37940;53.002;6.930;2023-03-24T17:19:03;50.67;;;47.30;;
51913;SDS011;37940;53.002;6.930;2023-03-24T17:31:15;79.27;;;72.90;;
51913;SDS011;37940;53.002;6.930;2023-03-24T18:42:26;66.63;;;61.60;;
51913;SDS011;37940;53.002;6.930;2023-03-24T18:44:52;78.22;;;72.03;;
51913;SDS011;37940;53.002;6.930;2023-03-24T18:47:18;76.13;;;70.15;;
51913;SDS011;37940;53.002;6.930;2023-03-24T18:49:44;78.05;;;71.88;;
51913;SDS011;37940;53.002;6.930;2023-03-24T18:52:10;71.72;;;66.25;;
51913;SDS011;37940;53.002;6.930;2023-03-24T18:54:38;68.45;;;63.30;;
51913;SDS011;37940;53.002;6.930;2023-03-24T18:57:04;76.72;;;70.68;;
51913;SDS011;37940;53.002;6.930;2023-03-24T18:59:30;62.92;;;58.33;;
51913;SDS011;37940;53.002;6.930;2023-03-24T19:01:56;75.72;;;69.82;;
51913;SDS011;37940;53.002;6.930;2023-03-24T19:04:22;69.38;;;64.10;;
51913;SDS011;37940;53.002;6.930;2023-03-24T19:06:47;67.82;;;62.72;;
51913;SDS011;37940;53.002;6.930;2023-03-24T19:09:14;72.78;;;67.20;;
51913;SDS011;37940;53.002;6.930;2023-03-24T19:11:44;79.32;;;72.97;;
51913;SDS011;37940;53.002;6.930;2023-03-24T19:14:10;71.53;;;66.05;;
51913;SDS011;37940;53.002;6.930;2023-03-24T19:16:36;80.32;;;73.82;;
51913;SDS011;37940;53.002;6.930;2023-03-24T19:19:02;81.28;;;74.68;;
51913;SDS011;37940;53.002;6.930;2023-03-24T19:21:28;69.80;;;64.45;;
51913;SDS011;37940;53.002;6.930;2023-03-24T19:23:54;77.32;;;71.22;;
51913;SDS011;37940;53.002;6.930;2023-03-24T19:26:21;79.65;;;73.25;;
51913;SDS011;37940;53.002;6.930;2023-03-24T19:28:47;80.32;;;73.85;;
51913;SDS011;37940;53.002;6.930;2023-03-24T19:31:14;90.88;;;82.97;;
51913;SDS011;37940;53.002;6.930;2023-03-24T19:33:41;77.80;;;71.63;;
51913;SDS011;37940;53.002;6.930;2023-03-24T19:36:07;78.53;;;72.25;;
51913;SDS011;37940;53.002;6.930;2023-03-24T19:38:34;86.72;;;79.20;;
51913;SDS011;37940;53.002;6.930;2023-03-24T19:41:05;87.35;;;79.95;;
51913;SDS011;37940;53.002;6.930;2023-03-24T19:43:32;87.55;;;80.10;;
51913;SDS011;37940;53.002;6.930;2023-03-24T19:45:58;87.03;;;79.68;;
51913;SDS011;37940;53.002;6.930;2023-03-24T19:48:24;84.05;;;77.15;;
51913;SDS011;37940;53.002;6.930;2023-03-24T19:50:50;78.10;;;71.78;;
51913;SDS011;37940;53.002;6.930;2023-03-24T19:53:18;83.80;;;76.82;;
51913;SDS011;37940;53.002;6.930;2023-03-24T19:55:45;70.32;;;64.72;;
51913;SDS011;37940;53.002;6.930;2023-03-24T19:58:11;68.90;;;63.70;;
51913;SDS011;37940;53.002;6.930;2023-03-24T20:00:37;77.25;;;71.10;;
51913;SDS011;37940;53.002;6.930;2023-03-24T20:03:03;81.25;;;74.55;;
51913;SDS011;37940;53.002;6.930;2023-03-24T20:05:29;68.07;;;62.85;;
51913;SDS011;37940;53.002;6.930;2023-03-24T20:07:54;73.25;;;67.40;;
51913;SDS011;37940;53.002;6.930;2023-03-24T20:10:22;87.03;;;79.57;;
51913;SDS011;37940;53.002;6.930;2023-03-24T20:12:48;82.70;;;75.88;;
51913;SDS011;37940;53.002;6.930;2023-03-24T20:15:14;94.40;;;85.85;;
51913;SDS011;37940;53.002;6.930;2023-03-24T20:17:40;94.50;;;85.93;;
51913;SDS011;37940;53.002;6.930;2023-03-24T20:20:07;86.43;;;79.13;;
51913;SDS011;37940;53.002;6.930;2023-03-24T20:22:34;81.25;;;74.68;;
51913;SDS011;37940;53.002;6.930;2023-03-24T20:25:02;52.03;;;48.42;;
51913;SDS011;37940;53.002;6.930;2023-03-24T20:27:29;71.03;;;65.50;;
51913;SDS011;37940;53.002;6.930;2023-03-24T20:29:55;79.38;;;72.97;;
51913;SDS011;37940;53.002;6.930;2023-03-24T20:32:21;67.25;;;62.15;;
51913;SDS011;37940;53.002;6.930;2023-03-24T20:34:47;64.32;;;59.50;;
51913;SDS011;37940;53.002;6.930;2023-03-24T20:37:13;69.45;;;64.13;;
51913;SDS011;37940;53.002;6.930;2023-03-24T20:39:39;67.25;;;62.22;;
51913;SDS011;37940;53.002;6.930;2023-03-24T20:42:07;68.18;;;63.00;;
51913;SDS011;37940;53.002;6.930;2023-03-24T20:44:34;74.97;;;69.07;;
51913;SDS011;37940;53.002;6.930;2023-03-24T20:47:00;67.90;;;62.75;;
51913;SDS011;37940;53.002;6.930;2023-03-24T20:49:27;83.40;;;76.47;;
51913;SDS011;37940;53.002;6.930;2023-03-24T20:51:53;79.22;;;72.82;;
51913;SDS011;37940;53.002;6.930;2023-03-24T20:54:18;78.70;;;72.40;;
51913;SDS011;37940;53.002;6.930;2023-03-24T20:56:48;80.63;;;74.13;;
51913;SDS011;37940;53.002;6.930;2023-03-24T20:59:16;80.43;;;73.95;;
51913;SDS011;37940;53.002;6.930;2023-03-24T21:01:42;78.40;;;72.15;;
51913;SDS011;37940;53.002;6.930;2023-03-24T21:04:08;78.47;;;72.18;;
51913;SDS011;37940;53.002;6.930;2023-03-24T21:06:35;78.70;;;72.40;;
51913;SDS011;37940;53.002;6.930;2023-03-24T21:09:04;80.18;;;73.70;;
51913;SDS011;37940;53.002;6.930;2023-03-24T21:11:30;81.07;;;74.53;;
51913;SDS011;37940;53.002;6.930;2023-03-24T21:13:56;80.80;;;74.25;;
51913;SDS011;37940;53.002;6.930;2023-03-24T21:16:22;82.65;;;75.80;;
51913;SDS011;37940;53.002;6.930;2023-03-24T21:18:50;84.10;;;77.13;;
51913;SDS011;37940;53.002;6.930;2023-03-24T21:21:18;83.05;;;76.22;;
51913;SDS011;37940;53.002;6.930;2023-03-24T21:23:44;81.80;;;75.10;;
51913;SDS011;37940;53.002;6.930;2023-03-24T21:26:11;81.28;;;74.65;;
51913;SDS011;37940;53.002;6.930;2023-03-24T21:28:40;80.57;;;74.05;;
51913;SDS011;37940;53.002;6.930;2023-03-24T21:31:11;78.97;;;72.57;;
51913;SDS011;37940;53.002;6.930;2023-03-24T21:33:43;76.50;;;70.45;;
51913;SDS011;37940;53.002;6.930;2023-03-24T21:36:10;79.93;;;73.43;;
51913;SDS011;37940;53.002;6.930;2023-03-24T21:38:36;82.00;;;75.30;;
51913;SDS011;37940;53.002;6.930;2023-03-24T21:41:03;79.80;;;73.35;;
51913;SDS011;37940;53.002;6.930;2023-03-24T21:43:29;76.63;;;70.53;;
51913;SDS011;37940;53.002;6.930;2023-03-24T21:45:55;75.45;;;69.53;;
51913;SDS011;37940;53.002;6.930;2023-03-24T21:48:22;73.47;;;67.68;;
51913;SDS011;37940;53.002;6.930;2023-03-24T21:50:50;80.45;;;73.90;;
51913;SDS011;37940;53.002;6.930;2023-03-24T21:53:17;83.15;;;76.25;;
51913;SDS011;37940;53.002;6.930;2023-03-24T21:55:48;82.38;;;75.57;;
51913;SDS011;37940;53.002;6.930;2023-03-24T21:58:15;81.78;;;75.03;;
51913;SDS011;37940;53.002;6.930;2023-03-24T22:00:42;82.18;;;75.22;;
51913;SDS011;37940;53.002;6.930;2023-03-24T22:03:10;84.20;;;77.18;;
51913;SDS011;37940;53.002;6.930;2023-03-24T22:05:36;85.57;;;78.38;;
51913;SDS011;37940;53.002;6.930;2023-03-24T22:08:04;83.20;;;76.28;;
51913;SDS011;37940;53.002;6.930;2023-03-24T22:10:31;84.68;;;77.57;;
51913;SDS011;37940;53.002;6.930;2023-03-24T22:13:01;85.40;;;78.28;;
51913;SDS011;37940;53.002;6.930;2023-03-24T22:15:28;80.65;;;74.05;;
51913;SDS011;37940;53.002;6.930;2023-03-24T22:17:55;88.32;;;80.57;;
51913;SDS011;37940;53.002;6.930;2023-03-24T22:20:21;86.47;;;79.00;;
51913;SDS011;37940;53.002;6.930;2023-03-24T22:22:48;83.93;;;76.88;;
51913;SDS011;37940;53.002;6.930;2023-03-24T22:25:15;84.43;;;77.43;;
51913;SDS011;37940;53.002;6.930;2023-03-24T22:27:42;82.50;;;75.70;;
51913;SDS011;37940;53.002;6.930;2023-03-24T22:30:09;82.35;;;75.55;;
51913;SDS011;37940;53.002;6.930;2023-03-24T22:32:36;83.57;;;76.65;;
51913;SDS011;37940;53.002;6.930;2023-03-24T22:35:02;81.75;;;75.03;;
51913;SDS011;37940;53.002;6.930;2023-03-24T22:37:29;81.50;;;74.82;;
51913;SDS011;37940;53.002;6.930;2023-03-24T22:39:55;83.32;;;76.45;;
51913;SDS011;37940;53.002;6.930;2023-03-24T22:42:21;81.00;;;74.38;;
51913;SDS011;37940;53.002;6.930;2023-03-24T22:44:47;83.65;;;76.65;;
51913;SDS011;37940;53.002;6.930;2023-03-24T22:47:12;78.60;;;72.18;;
51913;SDS011;37940;53.002;6.930;2023-03-24T22:49:38;105.28;;;94.75;;
51913;SDS011;37940;53.002;6.930;2023-03-24T22:52:08;83.10;;;76.30;;
51913;SDS011;37940;53.002;6.930;2023-03-24T22:54:34;79.78;;;73.30;;
51913;SDS011;37940;53.002;6.930;2023-03-24T22:56:59;80.03;;;73.53;;
51913;SDS011;37940;53.002;6.930;2023-03-24T22:59:25;81.88;;;75.15;;
51913;SDS011;37940;53.002;6.930;2023-03-24T23:01:51;83.55;;;76.60;;
51913;SDS011;37940;53.002;6.930;2023-03-24T23:04:17;90.13;;;82.32;;
51913;SDS011;37940;53.002;6.930;2023-03-24T23:06:44;87.22;;;79.82;;
51913;SDS011;37940;53.002;6.930;2023-03-24T23:09:12;87.45;;;80.05;;
51913;SDS011;37940;53.002;6.930;2023-03-24T23:11:38;83.63;;;76.65;;
51913;SDS011;37940;53.002;6.930;2023-03-24T23:14:05;82.57;;;75.68;;
51913;SDS011;37940;53.002;6.930;2023-03-24T23:16:32;86.18;;;78.90;;
51913;SDS011;37940;53.002;6.930;2023-03-24T23:18:59;86.47;;;79.13;;
51913;SDS011;37940;53.002;6.930;2023-03-24T23:21:26;86.47;;;79.13;;
51913;SDS011;37940;53.002;6.930;2023-03-24T23:23:52;86.82;;;79.45;;
51913;SDS011;37940;53.002;6.930;2023-03-24T23:26:18;83.95;;;76.93;;
51913;SDS011;37940;53.002;6.930;2023-03-24T23:28:45;84.45;;;77.38;;